KHMN/HMN METAR and TAF weather

Enter ICAO airport designator
Station Type Date Time Source
KHMN METAR 2019/07/17 11:58 UTC NOAA

KHMN 171158Z AUTO 14004KT 10SM OVC160 22/12 A3007 RMK AO2 SLP105 T02150123 10288 20201 53007 $


Station Type Date Time Source
KHMN Decoded METAR 2019/07/17 11:58 UTC NOAA

Holloman Air Force Base, NM, United States (KHMN) 32-51N 106-06W 1248M
Jul 17, 2019 - 07:58 AM EDT / 2019.07.17 1158 UTC
Wind: from the SE (140 degrees) at 5 MPH (4 KT):0
Visibility: 10 mile(s):0
Sky conditions: overcast
Temperature: 70.7 F (21.5 C)
Dew Point: 54.1 F (12.3 C)
Relative Humidity: 55%
Pressure (altimeter): 30.07 in. Hg (1018 hPa)
Pressure tendency: 0.02 inches (0.7 hPa) higher than three hours ago
ob: KHMN 171158Z AUTO 14004KT 10SM OVC160 22/12 A3007 RMK AO2 SLP105 T02150123 10288 20201 53007
cycle: 12

Station Type Date Time Source
KHMN TAF 2019/07/17 09:54 UTC NOAA

TAF
AMD KHMN 170943Z 1709/1815 VRB06KT 9999 BKN110 QNH3003INS
BECMG 1717/1718 31009KT 9999 BKN110 QNH3000INS
BECMG 1722/1723 VRB15G25KT 8000 -SHRA VCTS BKN080CB QNH2997INS TS OVR MTNS
BECMG 1801/1802 VRB06KT 9999 NSW BKN100 QNH2998INS
TEMPO 1802/1808 20015G25KT
BECMG 1808/1809 18009KT 9999 SKC QNH3008INS TX37/1722Z TN23/1712Z

Example: see airport list